createdAt,value
2018-11-12T00:00:39.399Z,18.27
2018-11-12T00:03:14.252Z,18.13
2018-11-12T00:05:48.833Z,16.87
2018-11-12T00:08:24.010Z,17.07
2018-11-12T00:10:59.174Z,17.97
2018-11-12T00:13:34.018Z,15.03
2018-11-12T00:16:09.046Z,18.53
2018-11-12T00:18:44.021Z,17.43
2018-11-12T00:21:18.714Z,17.33
2018-11-12T00:23:53.199Z,15.53
2018-11-12T00:26:27.951Z,19.13
2018-11-12T00:29:03.215Z,24.23
2018-11-12T00:31:39.842Z,20.63
2018-11-12T00:34:19.364Z,18.23
2018-11-12T00:36:54.371Z,16.37
2018-11-12T00:39:31.193Z,19.27
2018-11-12T00:42:06.972Z,24.47
2018-11-12T00:44:45.442Z,24.47
2018-11-12T00:47:20.301Z,26.10
2018-11-12T00:49:54.905Z,27.03
2018-11-12T00:52:29.916Z,26.43
2018-11-12T00:55:04.750Z,24.87
2018-11-12T00:57:39.594Z,23.20
2018-11-12T01:00:19.240Z,19.20
2018-11-12T01:02:54.174Z,19.97
2018-11-12T01:05:29.035Z,19.97
2018-11-12T01:08:05.504Z,21.93
2018-11-12T01:10:40.291Z,20.63
2018-11-12T01:13:14.767Z,16.63
2018-11-12T01:15:49.680Z,19.53
2018-11-12T01:18:24.641Z,15.43
2018-11-12T01:21:00.787Z,17.93
2018-11-12T01:23:37.162Z,18.63
2018-11-12T01:26:12.159Z,18.30
2018-11-12T01:28:47.762Z,15.80
2018-11-12T01:31:22.631Z,14.77
2018-11-12T01:33:57.420Z,17.87
2018-11-12T01:36:34.188Z,20.00
2018-11-12T01:39:10.745Z,17.83
2018-11-12T01:41:46.638Z,17.43
2018-11-12T01:44:21.237Z,17.20
2018-11-12T01:46:55.993Z,21.07
2018-11-12T01:49:32.363Z,15.37
2018-11-12T01:52:08.074Z,16.27
2018-11-12T01:54:44.623Z,16.67
2018-11-12T01:57:20.463Z,20.07
2018-11-12T01:59:56.245Z,19.60
2018-11-12T02:02:32.248Z,16.40
2018-11-12T02:05:07.566Z,17.33
2018-11-12T02:07:43.072Z,16.77
2018-11-12T02:10:18.636Z,16.60
2018-11-12T02:12:54.056Z,18.63
2018-11-12T02:15:29.088Z,14.90
2018-11-12T02:18:04.141Z,12.80
2018-11-12T02:20:39.383Z,13.07
2018-11-12T02:23:14.428Z,15.27
2018-11-12T02:25:49.587Z,14.57
2018-11-12T02:28:25.562Z,16.73
2018-11-12T02:31:00.436Z,14.20
2018-11-12T02:33:36.253Z,14.33
2018-11-12T02:36:11.269Z,16.90
2018-11-12T02:38:46.240Z,14.43
2018-11-12T02:41:21.736Z,14.47
2018-11-12T02:43:56.746Z,16.90
2018-11-12T02:46:31.301Z,15.40
2018-11-12T02:49:06.164Z,12.90
2018-11-12T02:51:40.642Z,11.80
2018-11-12T02:54:15.356Z,12.93
2018-11-12T02:56:49.935Z,13.97
2018-11-12T02:59:25.326Z,11.33
2018-11-12T03:02:00.591Z,13.27
2018-11-12T03:04:36.333Z,14.73
2018-11-12T03:07:11.375Z,13.70
2018-11-12T03:09:46.498Z,16.53
2018-11-12T03:12:21.468Z,11.80
2018-11-12T03:14:56.307Z,15.90
2018-11-12T03:17:32.068Z,16.53
2018-11-12T03:20:09.561Z,13.63
2018-11-12T03:22:47.049Z,19.23
2018-11-12T03:25:24.363Z,15.63
2018-11-12T03:28:00.232Z,13.77
2018-11-12T03:30:35.029Z,12.13
2018-11-12T03:33:10.046Z,10.83
2018-11-12T03:35:44.621Z,12.47
2018-11-12T03:38:20.078Z,10.17
2018-11-12T03:40:54.954Z,10.53
2018-11-12T03:43:29.618Z,10.30
2018-11-12T03:46:05.437Z,12.90
2018-11-12T03:48:40.733Z,13.37
2018-11-12T03:51:16.014Z,12.60
2018-11-12T03:53:52.443Z,11.57
2018-11-12T03:56:27.244Z,10.33
2018-11-12T03:59:02.827Z,11.87
2018-11-12T04:01:43.754Z,10.53
2018-11-12T04:04:19.352Z,9.63
2018-11-12T04:06:54.549Z,12.57
2018-11-12T04:09:30.531Z,14.47
2018-11-12T04:12:05.553Z,17.37
2018-11-12T04:14:40.367Z,14.40
2018-11-12T04:17:15.447Z,13.57
2018-11-12T04:19:50.433Z,12.20
2018-11-12T04:22:29.489Z,9.37
2018-11-12T04:25:04.746Z,11.10
2018-11-12T04:27:39.780Z,8.90
2018-11-12T04:30:15.607Z,10.90
2018-11-12T04:32:50.704Z,10.43
2018-11-12T04:35:25.733Z,11.13
2018-11-12T04:38:00.710Z,10.07
2018-11-12T04:40:35.895Z,10.20
2018-11-12T04:43:10.081Z,10.10
2018-11-12T04:45:45.079Z,8.87
2018-11-12T04:48:20.903Z,9.30
2018-11-12T04:50:56.037Z,8.83
2018-11-12T04:53:31.661Z,8.20
2018-11-12T04:56:06.930Z,9.23
2018-11-12T04:58:41.528Z,8.17
2018-11-12T05:01:20.531Z,11.40
2018-11-12T05:03:55.738Z,10.83
2018-11-12T05:06:31.115Z,9.47
2018-11-12T05:09:08.131Z,10.17
2018-11-12T05:11:43.011Z,10.67
2018-11-12T05:14:18.074Z,10.80
2018-11-12T05:16:53.200Z,9.67
2018-11-12T05:19:28.186Z,10.80
2018-11-12T05:22:03.188Z,11.60
2018-11-12T05:24:38.374Z,8.53
2018-11-12T05:27:14.155Z,10.43
2018-11-12T05:29:49.422Z,9.33
2018-11-12T05:32:25.469Z,8.33
2018-11-12T05:34:59.674Z,9.17
2018-11-12T05:37:34.843Z,9.10
2018-11-12T05:40:11.868Z,8.63
2018-11-12T05:42:46.980Z,12.67
2018-11-12T05:45:22.758Z,11.40
2018-11-12T05:47:58.390Z,12.30
2018-11-12T05:50:33.132Z,10.97
2018-11-12T05:53:08.101Z,11.47
2018-11-12T05:55:42.752Z,10.47
2018-11-12T05:58:17.433Z,11.10
2018-11-12T06:00:54.029Z,10.50
2018-11-12T06:03:28.258Z,11.80
2018-11-12T06:06:03.190Z,16.20
2018-11-12T06:08:37.945Z,12.50
2018-11-12T06:11:47.009Z,11.67
2018-11-12T06:14:26.380Z,13.90
2018-11-12T06:17:01.064Z,11.47
2018-11-12T06:19:35.818Z,17.40
2018-11-12T06:22:10.791Z,14.27
2018-11-12T06:24:45.728Z,15.50
2018-11-12T06:27:20.515Z,19.20
2018-11-12T06:29:55.072Z,16.63
2018-11-12T06:32:29.882Z,18.47
2018-11-12T06:35:04.943Z,14.37
2018-11-12T06:37:39.728Z,12.60
2018-11-12T06:40:15.528Z,14.63
2018-11-12T06:42:50.508Z,14.63
2018-11-12T06:45:27.074Z,9.87
2018-11-12T06:48:02.052Z,11.03
2018-11-12T06:50:36.922Z,9.13
2018-11-12T06:53:11.660Z,11.43
2018-11-12T06:55:46.335Z,11.47
2018-11-12T06:58:21.100Z,11.53
2018-11-12T07:00:55.845Z,11.30
2018-11-12T07:03:30.544Z,10.47
2018-11-12T07:06:05.350Z,13.27
2018-11-12T07:08:39.941Z,16.50
2018-11-12T07:11:14.177Z,11.37
2018-11-12T07:13:48.991Z,11.20
2018-11-12T07:16:23.779Z,10.60
2018-11-12T07:18:58.580Z,13.00
2018-11-12T07:21:33.238Z,15.97
2018-11-12T07:24:08.112Z,15.03
2018-11-12T07:26:42.847Z,14.93
2018-11-12T07:29:17.503Z,13.70
2018-11-12T07:31:52.208Z,13.97
2018-11-12T07:34:27.025Z,13.53
2018-11-12T07:37:01.732Z,15.20
2018-11-12T07:39:36.362Z,10.60
2018-11-12T07:42:11.184Z,13.47
2018-11-12T07:44:45.974Z,13.63
2018-11-12T07:47:20.931Z,14.77
2018-11-12T07:49:55.825Z,11.80
2018-11-12T07:52:30.422Z,10.63
2018-11-12T07:55:06.438Z,12.57
2018-11-12T07:57:41.050Z,12.43
2018-11-12T08:00:18.366Z,13.57
2018-11-12T08:03:10.666Z,14.03
2018-11-12T08:05:45.464Z,13.97
2018-11-12T08:08:20.062Z,12.37
2018-11-12T08:10:54.892Z,11.90
2018-11-12T08:13:31.650Z,13.47
2018-11-12T08:16:06.327Z,9.07
2018-11-12T08:18:41.291Z,11.47
2018-11-12T08:21:16.085Z,10.50
2018-11-12T08:23:51.030Z,12.43
2018-11-12T08:26:25.897Z,11.23
2018-11-12T08:29:00.694Z,9.77
2018-11-12T08:31:35.580Z,9.70
2018-11-12T08:34:10.413Z,10.33
2018-11-12T08:36:45.239Z,9.20
2018-11-12T08:39:20.360Z,8.67
2018-11-12T08:41:55.150Z,11.20
2018-11-12T08:44:29.854Z,9.00
2018-11-12T08:47:04.104Z,9.20
2018-11-12T08:49:39.326Z,8.80
2018-11-12T08:52:14.142Z,8.77
2018-11-12T08:54:48.931Z,13.03
2018-11-12T08:57:23.692Z,9.13
2018-11-12T08:59:58.441Z,10.27
2018-11-12T09:02:33.031Z,9.73
2018-11-12T09:05:09.431Z,11.20
2018-11-12T09:07:45.435Z,9.07
2018-11-12T09:10:21.900Z,9.27
2018-11-12T09:12:57.693Z,8.73
2018-11-12T09:15:32.424Z,9.00
2018-11-12T09:18:07.254Z,8.90
2018-11-12T09:20:41.821Z,8.93
2018-11-12T09:23:17.079Z,9.40
2018-11-12T09:25:51.872Z,8.30
2018-11-12T09:28:33.142Z,9.00
2018-11-12T09:31:09.431Z,9.37
2018-11-12T09:33:42.570Z,9.53
2018-11-12T09:36:17.157Z,11.17
2018-11-12T09:38:51.940Z,11.50
2018-11-12T09:41:26.715Z,8.67
2018-11-12T09:44:01.759Z,8.37
2018-11-12T09:46:36.328Z,8.83
2018-11-12T09:49:11.264Z,8.20
2018-11-12T09:51:45.846Z,8.90
2018-11-12T09:54:20.471Z,10.87
2018-11-12T09:56:55.303Z,8.20
2018-11-12T09:59:30.212Z,8.97
2018-11-12T10:02:05.535Z,8.00
2018-11-12T10:04:41.334Z,10.90
2018-11-12T10:07:15.929Z,10.07
2018-11-12T10:09:51.833Z,7.40
2018-11-12T10:12:27.310Z,8.00
2018-11-12T10:15:03.014Z,7.50
2018-11-12T10:17:36.547Z,8.70
2018-11-12T10:20:08.987Z,7.03
2018-11-12T10:22:43.773Z,6.23
2018-11-12T10:25:19.287Z,6.40
2018-11-12T10:27:54.191Z,5.20
2018-11-12T10:30:29.313Z,5.90
2018-11-12T10:33:04.075Z,7.30
2018-11-12T10:35:38.899Z,6.20
2018-11-12T10:38:13.600Z,6.40
2018-11-12T10:40:48.368Z,7.60
2018-11-12T10:43:23.220Z,7.10
2018-11-12T10:45:57.744Z,6.70
2018-11-12T10:48:32.494Z,6.83
2018-11-12T10:51:07.299Z,7.43
2018-11-12T10:53:49.842Z,9.40
2018-11-12T10:56:16.646Z,11.27
2018-11-12T10:58:51.375Z,8.13
2018-11-12T11:01:31.589Z,7.37
2018-11-12T11:04:15.165Z,7.40
2018-11-12T11:06:49.972Z,6.87
2018-11-12T11:09:24.804Z,7.20
2018-11-12T11:11:59.743Z,6.03
2018-11-12T11:14:34.392Z,6.70
2018-11-12T11:17:09.345Z,8.93
2018-11-12T11:19:43.913Z,5.97
2018-11-12T11:22:19.126Z,5.43
2018-11-12T11:24:54.035Z,5.33
2018-11-12T11:27:28.880Z,6.07
2018-11-12T11:30:03.728Z,5.13
2018-11-12T11:32:38.408Z,5.07
2018-11-12T11:35:14.334Z,4.90
2018-11-12T11:37:48.980Z,4.33
2018-11-12T11:40:25.269Z,5.93
2018-11-12T11:42:59.709Z,3.70
2018-11-12T11:45:34.400Z,5.40
2018-11-12T11:48:08.944Z,5.23
2018-11-12T11:50:43.561Z,3.57
2018-11-12T11:53:18.299Z,5.37
2018-11-12T11:55:53.045Z,5.07
2018-11-12T11:58:27.643Z,3.43
2018-11-12T12:01:02.055Z,7.23
2018-11-12T12:03:37.199Z,3.70
2018-11-12T12:06:11.940Z,3.73
2018-11-12T12:08:46.842Z,4.10
2018-11-12T12:11:21.498Z,3.80
2018-11-12T12:13:56.892Z,5.80
2018-11-12T12:16:32.063Z,6.40
2018-11-12T12:19:06.851Z,5.80
2018-11-12T12:21:41.456Z,5.23
2018-11-12T12:24:16.384Z,3.73
2018-11-12T12:26:51.282Z,3.83
2018-11-12T12:29:25.893Z,3.40
2018-11-12T12:32:00.559Z,4.23
2018-11-12T12:34:35.594Z,3.33
2018-11-12T12:37:10.503Z,5.23
2018-11-12T12:39:45.276Z,5.23
2018-11-12T12:42:20.372Z,3.83
2018-11-12T12:44:55.598Z,3.93
2018-11-12T12:47:31.496Z,4.17
2018-11-12T12:50:08.032Z,2.60
2018-11-12T12:52:42.801Z,3.00
2018-11-12T12:55:20.858Z,3.50
2018-11-12T12:57:55.788Z,8.83
2018-11-12T13:00:30.705Z,3.47
2018-11-12T13:03:04.889Z,3.10
2018-11-12T13:05:39.979Z,3.47
2018-11-12T13:08:15.844Z,4.50
2018-11-12T13:10:50.798Z,3.40
2018-11-12T13:13:25.761Z,4.90
2018-11-12T13:16:00.466Z,3.67
2018-11-12T13:18:35.244Z,4.40
2018-11-12T13:21:09.788Z,3.77
2018-11-12T13:23:44.456Z,3.10
2018-11-12T13:26:20.484Z,3.93
2018-11-12T13:28:55.271Z,2.93
2018-11-12T13:31:29.462Z,4.50
2018-11-12T13:34:04.380Z,2.77
2018-11-12T13:36:39.199Z,2.87
2018-11-12T13:39:14.154Z,2.30
2018-11-12T13:41:49.482Z,4.13
2018-11-12T13:44:27.817Z,3.53
2018-11-12T13:47:02.607Z,2.23
2018-11-12T13:49:37.311Z,6.00
2018-11-12T13:52:12.017Z,3.10
2018-11-12T13:54:46.784Z,3.60
2018-11-12T13:57:21.492Z,2.47
2018-11-12T13:59:57.032Z,4.90
2018-11-12T14:02:32.536Z,2.60
2018-11-12T14:05:08.665Z,2.93
2018-11-12T14:07:45.722Z,3.13
2018-11-12T14:10:21.756Z,5.33
2018-11-12T14:12:57.051Z,2.83
2018-11-12T14:15:31.557Z,2.67
2018-11-12T14:18:06.389Z,2.93
2018-11-12T14:20:41.362Z,4.90
2018-11-12T14:23:15.997Z,4.23
2018-11-12T14:25:50.682Z,3.50
2018-11-12T14:28:25.363Z,3.60
2018-11-12T14:30:59.964Z,3.43
2018-11-12T14:33:34.853Z,3.33
2018-11-12T14:36:09.565Z,4.63
2018-11-12T14:38:44.130Z,5.17
2018-11-12T14:41:18.839Z,3.20
2018-11-12T14:43:53.638Z,3.30
2018-11-12T14:46:28.205Z,3.53
2018-11-12T14:49:02.793Z,4.57
2018-11-12T14:51:37.480Z,5.40
2018-11-12T14:54:11.925Z,3.60
2018-11-12T14:56:46.521Z,3.27
2018-11-12T14:59:21.159Z,3.07
2018-11-12T15:01:55.930Z,4.67
2018-11-12T15:04:30.455Z,3.10
2018-11-12T15:07:05.156Z,3.93
2018-11-12T15:09:39.761Z,3.53
2018-11-12T15:12:14.712Z,3.03
2018-11-12T15:14:49.918Z,4.57
2018-11-12T15:17:24.688Z,3.33
2018-11-12T15:19:59.520Z,4.20
2018-11-12T15:22:34.241Z,6.93
2018-11-12T15:25:10.706Z,5.27
2018-11-12T15:27:45.547Z,6.07
2018-11-12T15:30:21.348Z,4.77
2018-11-12T15:32:56.282Z,5.47
2018-11-12T15:35:31.678Z,5.87
2018-11-12T15:38:06.749Z,5.13
2018-11-12T15:40:41.683Z,5.17
2018-11-12T15:43:16.368Z,3.93
2018-11-12T15:45:51.091Z,3.77
2018-11-12T15:48:25.917Z,4.80
2018-11-12T15:51:00.832Z,5.57
2018-11-12T15:53:35.341Z,12.80
2018-11-12T15:56:10.147Z,7.10
2018-11-12T15:58:44.744Z,5.87
2018-11-12T16:01:19.609Z,4.33
2018-11-12T16:03:54.321Z,6.13
2018-11-12T16:06:28.837Z,6.33
2018-11-12T16:09:06.809Z,4.80
2018-11-12T16:11:41.945Z,4.00
2018-11-12T16:14:16.784Z,6.27
2018-11-12T16:16:51.640Z,7.80
2018-11-12T16:19:26.371Z,7.10
2018-11-12T16:22:00.973Z,6.30
2018-11-12T16:24:35.647Z,6.30
2018-11-12T16:27:10.442Z,28.97
2018-11-12T16:29:45.192Z,14.90
2018-11-12T16:32:19.976Z,16.67
2018-11-12T16:34:54.565Z,9.67
2018-11-12T16:37:29.301Z,13.90
2018-11-12T16:40:03.961Z,9.80
2018-11-12T16:42:39.327Z,15.03
2018-11-12T16:45:15.430Z,15.33
2018-11-12T16:47:50.332Z,13.17
2018-11-12T16:50:24.948Z,13.20
2018-11-12T16:52:59.837Z,10.37
2018-11-12T16:55:34.492Z,11.53
2018-11-12T16:58:09.157Z,8.47
2018-11-12T17:00:43.864Z,8.30
2018-11-12T17:03:18.971Z,6.80
2018-11-12T17:05:53.828Z,10.67
2018-11-12T17:08:28.637Z,7.43
2018-11-12T17:11:03.458Z,10.60
2018-11-12T17:13:38.420Z,5.90
2018-11-12T17:16:13.220Z,7.00
2018-11-12T17:18:47.923Z,10.83
2018-11-12T17:21:23.904Z,13.03
2018-11-12T17:23:58.454Z,11.93
2018-11-12T17:26:33.364Z,15.50
2018-11-12T17:29:08.532Z,10.80
2018-11-12T17:31:43.302Z,15.57
2018-11-12T17:34:18.061Z,12.70
2018-11-12T17:36:52.719Z,11.77
2018-11-12T17:39:27.529Z,12.13
2018-11-12T17:42:02.545Z,7.63
2018-11-12T17:44:37.490Z,10.20
2018-11-12T17:47:12.315Z,7.33
2018-11-12T17:49:47.253Z,7.83
2018-11-12T17:52:21.808Z,9.50
2018-11-12T17:54:56.468Z,12.20
2018-11-12T17:57:31.104Z,23.83
2018-11-12T18:00:09.841Z,39.23
2018-11-12T18:02:44.898Z,36.43
2018-11-12T18:05:20.015Z,27.27
2018-11-12T18:07:55.066Z,29.87
2018-11-12T18:10:30.737Z,25.63
2018-11-12T18:13:05.554Z,22.00
2018-11-12T18:15:42.019Z,16.73
2018-11-12T18:18:16.709Z,17.30
2018-11-12T18:20:51.443Z,23.67
2018-11-12T18:23:26.091Z,13.93
2018-11-12T18:26:00.704Z,25.63
2018-11-12T18:28:35.443Z,11.27
2018-11-12T18:31:10.172Z,9.00
2018-11-12T18:33:44.722Z,16.57
2018-11-12T18:36:19.398Z,22.93
2018-11-12T18:38:54.199Z,27.80
2018-11-12T18:41:28.911Z,22.83
2018-11-12T18:44:03.578Z,17.37
2018-11-12T18:46:38.369Z,17.63
2018-11-12T18:49:13.226Z,19.40
2018-11-12T18:51:47.971Z,17.53
2018-11-12T18:54:22.997Z,20.47
2018-11-12T18:56:57.815Z,26.07
2018-11-12T18:59:34.139Z,23.73
2018-11-12T19:02:09.109Z,18.63
2018-11-12T19:04:43.875Z,16.77
2018-11-12T19:07:18.639Z,18.73
2018-11-12T19:09:53.951Z,20.43
2018-11-12T19:12:31.271Z,19.13
2018-11-12T19:15:08.447Z,8.67
2018-11-12T19:17:44.233Z,13.13
2018-11-12T19:20:19.005Z,15.03
2018-11-12T19:22:53.844Z,37.90
2018-11-12T19:25:30.466Z,38.13
2018-11-12T19:28:05.537Z,34.07
2018-11-12T19:30:40.585Z,10.93
2018-11-12T19:33:15.745Z,14.07
2018-11-12T19:35:50.575Z,12.43
2018-11-12T19:38:30.774Z,13.40
2018-11-12T19:41:08.546Z,18.27
2018-11-12T19:43:43.617Z,14.93
2018-11-12T19:46:41.841Z,15.63
2018-11-12T19:49:27.437Z,13.53
2018-11-12T19:52:20.511Z,15.77
2018-11-12T19:55:08.384Z,24.90
2018-11-12T19:58:20.488Z,21.50
2018-11-12T20:01:11.883Z,16.57
2018-11-12T20:04:27.548Z,17.27
2018-11-12T20:07:21.335Z,19.93
2018-11-12T20:10:27.382Z,18.97
2018-11-12T20:13:02.886Z,18.73
2018-11-12T20:15:37.948Z,20.07
2018-11-12T20:18:14.154Z,15.33
2018-11-12T20:20:50.485Z,33.40
2018-11-12T20:23:31.005Z,21.73
2018-11-12T20:26:09.527Z,19.13
2018-11-12T20:28:50.064Z,17.67
2018-11-12T20:31:26.276Z,17.43
2018-11-12T20:34:01.649Z,49.00
2018-11-12T20:36:37.067Z,30.40
2018-11-12T20:39:12.513Z,22.23
2018-11-12T20:41:49.206Z,17.47
2018-11-12T20:44:28.753Z,14.43
2018-11-12T20:47:04.027Z,16.53
2018-11-12T20:49:40.364Z,15.03
2018-11-12T20:52:15.560Z,15.47
2018-11-12T20:54:50.798Z,16.17
2018-11-12T20:57:25.773Z,14.03
2018-11-12T21:00:01.403Z,13.27
2018-11-12T21:02:43.140Z,13.83
2018-11-12T21:05:18.795Z,15.20
2018-11-12T21:07:53.614Z,34.23
2018-11-12T21:10:28.511Z,23.33
2018-11-12T21:13:03.619Z,11.60
2018-11-12T21:15:38.593Z,12.03
2018-11-12T21:18:13.541Z,10.13
2018-11-12T21:20:48.606Z,12.97
2018-11-12T21:23:25.411Z,13.23
2018-11-12T21:26:00.557Z,15.60
2018-11-12T21:28:35.508Z,14.27
2018-11-12T21:31:10.600Z,10.67
2018-11-12T21:33:45.117Z,12.07
2018-11-12T21:36:20.128Z,21.37
2018-11-12T21:38:55.227Z,18.70
2018-11-12T21:41:29.890Z,15.87
2018-11-12T21:44:05.869Z,14.90
2018-11-12T21:46:40.402Z,16.27
2018-11-12T21:49:14.762Z,18.57
2018-11-12T21:51:49.255Z,17.60
2018-11-12T21:54:25.494Z,21.40
2018-11-12T21:57:00.147Z,16.27
2018-11-12T21:59:35.068Z,15.03
2018-11-12T22:02:10.348Z,15.67
2018-11-12T22:04:45.046Z,15.70
2018-11-12T22:07:19.585Z,14.03
2018-11-12T22:09:54.375Z,13.87
2018-11-12T22:12:28.999Z,12.33
2018-11-12T22:15:05.741Z,14.67
2018-11-12T22:17:40.574Z,14.53
2018-11-12T22:20:16.387Z,16.40
2018-11-12T22:22:51.026Z,9.70
2018-11-12T22:25:25.549Z,10.80
2018-11-12T22:28:00.370Z,9.43
2018-11-12T22:30:34.672Z,9.90
2018-11-12T22:33:09.317Z,14.60
2018-11-12T22:35:44.343Z,10.13
2018-11-12T22:38:19.114Z,11.90
2018-11-12T22:40:53.516Z,11.47
2018-11-12T22:43:28.265Z,12.70
2018-11-12T22:46:02.697Z,11.30
2018-11-12T22:48:37.210Z,11.03
2018-11-12T22:51:12.719Z,11.17
2018-11-12T22:53:47.704Z,12.40
2018-11-12T22:56:22.582Z,10.60
2018-11-12T22:58:57.361Z,10.90
2018-11-12T23:01:31.958Z,13.57
2018-11-12T23:04:06.716Z,15.70
2018-11-12T23:06:41.974Z,12.67
2018-11-12T23:09:17.770Z,14.40
2018-11-12T23:11:52.377Z,11.77
2018-11-12T23:14:26.984Z,11.83
2018-11-12T23:17:01.612Z,15.90
2018-11-12T23:19:36.295Z,14.87
2018-11-12T23:22:11.070Z,14.47
2018-11-12T23:24:45.529Z,15.27
2018-11-12T23:27:20.102Z,13.10
2018-11-12T23:29:54.629Z,13.27
2018-11-12T23:32:29.179Z,15.60
2018-11-12T23:35:03.713Z,16.27
2018-11-12T23:37:38.030Z,13.70
2018-11-12T23:40:13.422Z,14.37
2018-11-12T23:42:48.448Z,12.03
2018-11-12T23:45:22.916Z,13.23
2018-11-12T23:47:57.186Z,14.53
2018-11-12T23:50:31.908Z,11.70
2018-11-12T23:53:06.352Z,11.47
2018-11-12T23:55:40.714Z,14.57
2018-11-12T23:58:15.402Z,15.77
